Time;durP1;ratioP1;P1;durP2;ratioP2;P2;SDS_P1;SDS_P2;PMS_P1;PMS_P2;Temp;Humidity;BMP_temperature;BMP_pressure;BME280_temperature;BME280_humidity;BME280_pressure;Samples;Min_cycle;Max_cycle;Signal;HPM_P1;HPM_P2
2022/10/02 00:00:03;;;;;;;4.72;4.53;;;;;;;10.55;100.00;100872.97;6003636;23;20391;-70
2022/10/02 00:03:20;;;;;;;4.47;4.28;;;;;;;11.32;100.00;101005.69;6011312;23;20014;-70
2022/10/02 00:06:01;;;;;;;5.07;4.68;;;;;;;11.11;100.00;100955.94;5903786;24;20021;-71
2022/10/02 00:08:42;;;;;;;4.68;4.47;;;;;;;11.44;100.00;100999.81;5869917;24;20080;-71
2022/10/02 00:11:23;;;;;;;5.50;5.10;;;;;;;11.14;100.00;100919.00;5876788;24;20052;-70
2022/10/02 00:14:11;;;;;;;7.53;4.63;;;;;;;11.72;100.00;101004.50;5891058;24;20025;-69
2022/10/02 00:16:53;;;;;;;9.60;5.00;;;;;;;11.79;100.00;100994.53;5935505;23;20457;-71
2022/10/02 00:19:23;;;;;;;13.75;5.00;;;;;;;11.62;100.00;100961.22;5998241;23;20030;-71
2022/10/02 00:22:59;;;;;;;7.22;4.90;;;;;;;11.43;100.00;100942.94;6027579;23;20022;-71
2022/10/02 00:25:44;;;;;;;5.78;4.85;;;;;;;11.62;100.00;100971.72;5860349;24;20023;-71
2022/10/02 00:28:19;;;;;;;13.48;5.80;;;;;;;11.77;100.00;101004.28;5964227;24;20032;-69
2022/10/02 00:31:04;;;;;;;4.80;4.40;;;;;;;11.80;100.00;101001.47;6016373;23;20030;-72
2022/10/02 00:33:48;;;;;;;5.72;5.43;;;;;;;11.82;100.00;100996.97;6011502;23;20344;-70
2022/10/02 00:36:31;;;;;;;4.38;4.18;;;;;;;11.63;100.00;100967.34;6021312;23;20018;-71
2022/10/02 00:39:17;;;;;;;5.45;4.50;;;;;;;11.82;100.00;101012.75;6030057;23;20085;-71
2022/10/02 00:42:10;;;;;;;5.30;5.00;;;;;;;11.84;100.00;101010.06;6022178;23;20442;-71
2022/10/02 00:45:06;;;;;;;4.63;4.38;;;;;;;11.83;100.00;101014.47;6025825;23;20039;-70
2022/10/02 00:47:39;;;;;;;7.38;4.68;;;;;;;11.22;100.00;100915.13;6001253;23;20098;-70
2022/10/02 00:50:34;;;;;;;5.22;4.93;;;;;;;11.99;100.00;101022.44;6009899;23;20548;-70
2022/10/02 00:53:27;;;;;;;8.27;4.82;;;;;;;12.04;100.00;101011.66;6034688;23;20030;-70
2022/10/02 00:56:41;;;;;;;4.60;4.30;;;;;;;11.99;100.00;101009.28;5985078;23;20030;-72
2022/10/02 00:59:30;;;;;;;8.05;4.53;;;;;;;12.11;100.00;101015.69;5985546;23;20017;-69
2022/10/02 01:02:15;;;;;;;5.82;4.90;;;;;;;11.74;100.00;100950.06;6011263;23;20160;-69
2022/10/02 01:04:48;;;;;;;16.38;5.05;;;;;;;12.12;100.00;101002.41;6038126;23;20039;-71
2022/10/02 01:07:16;;;;;;;5.93;4.60;;;;;;;12.08;100.00;101013.19;6016772;23;20048;-71
2022/10/02 01:09:44;;;;;;;10.23;5.07;;;;;;;12.13;100.00;101008.56;6031080;23;20031;-71
2022/10/02 01:12:16;;;;;;;7.85;6.05;;;;;;;11.88;100.00;100988.75;6039506;23;20518;-71
2022/10/02 01:14:46;;;;;;;4.60;4.40;;;;;;;10.94;100.00;100828.13;6035509;23;20023;-70
2022/10/02 01:17:32;;;;;;;5.30;4.85;;;;;;;12.08;100.00;101034.25;6020023;23;20295;-71
2022/10/02 01:20:20;;;;;;;6.75;6.07;;;;;;;11.91;100.00;100988.66;6032794;23;20018;-71
2022/10/02 01:23:32;;;;;;;5.13;4.78;;;;;;;12.18;100.00;101014.41;6042814;23;20026;-71
2022/10/02 01:26:00;;;;;;;6.45;4.53;;;;;;;11.81;100.00;100924.31;6022700;23;20365;-71
2022/10/02 01:28:33;;;;;;;5.30;4.93;;;;;;;12.34;100.00;101012.63;5983162;23;20336;-71
2022/10/02 01:31:23;;;;;;;12.65;5.28;;;;;;;12.07;100.00;100972.06;6037856;23;20096;-72
2022/10/02 01:33:57;;;;;;;11.55;5.32;;;;;;;12.34;100.00;101025.78;6038522;23;20069;-72
2022/10/02 01:36:36;;;;;;;9.93;5.53;;;;;;;12.21;100.00;100993.19;6028066;23;20020;-70
2022/10/02 01:39:10;;;;;;;7.65;5.65;;;;;;;12.01;100.00;100961.84;6036600;23;20026;-71
2022/10/02 01:41:54;;;;;;;5.60;5.30;;;;;;;12.09;100.00;100973.66;6029169;23;20055;-69
2022/10/02 01:44:26;;;;;;;4.72;4.53;;;;;;;11.92;100.00;100953.50;6010808;23;20019;-71
2022/10/02 01:47:17;;;;;;;10.80;5.27;;;;;;;12.48;100.00;101016.31;6036639;23;20023;-71
2022/10/02 01:50:14;;;;;;;8.50;5.47;;;;;;;12.21;100.00;100972.16;6028381;23;20101;-71
2022/10/02 01:53:07;;;;;;;9.10;5.10;;;;;;;12.30;100.00;100968.16;6035553;23;20074;-72
2022/10/02 01:55:49;;;;;;;10.07;4.93;;;;;;;12.48;100.00;101013.66;5993682;23;20031;-72
2022/10/02 01:58:35;;;;;;;5.13;4.72;;;;;;;12.51;100.00;101008.25;6032402;23;20338;-71
2022/10/02 02:01:30;;;;;;;16.80;5.70;;;;;;;12.49;100.00;101013.59;6028389;23;20030;-71
2022/10/02 02:04:24;;;;;;;5.05;4.75;;;;;;;12.51;100.00;101013.53;5995248;23;20027;-71
2022/10/02 02:07:02;;;;;;;5.13;4.80;;;;;;;11.63;100.00;100873.56;6039145;23;20030;-71
2022/10/02 02:09:42;;;;;;;5.38;4.90;;;;;;;12.60;100.00;101020.88;6026173;23;20256;-70
2022/10/02 02:12:21;;;;;;;5.60;5.10;;;;;;;12.56;100.00;101014.09;6008250;23;20086;-71
2022/10/02 02:15:08;;;;;;;5.53;4.97;;;;;;;11.85;100.00;100899.53;6010824;23;20030;-71
2022/10/02 02:18:16;;;;;;;5.20;4.90;;;;;;;12.54;100.00;101005.44;6028709;23;20110;-70
2022/10/02 02:21:01;;;;;;;5.00;4.60;;;;;;;11.81;100.00;100890.13;6002387;23;20094;-70
2022/10/02 02:23:39;;;;;;;9.15;5.03;;;;;;;11.73;100.00;100898.41;5998693;23;20031;-70
2022/10/02 02:26:11;;;;;;;4.63;4.43;;;;;;;12.58;100.00;101005.16;5985386;23;20081;-70
2022/10/02 02:29:12;;;;;;;9.15;5.47;;;;;;;12.56;100.00;100995.66;6029760;23;20030;-71
2022/10/02 02:31:48;;;;;;;5.60;5.15;;;;;;;12.26;100.00;100940.31;5995994;23;20034;-72
2022/10/02 02:34:43;;;;;;;6.07;4.78;;;;;;;11.08;100.00;100748.59;6027109;23;20103;-70
2022/10/02 02:37:18;;;;;;;6.03;5.45;;;;;;;12.57;100.00;100997.38;6025845;23;20060;-70
2022/10/02 02:39:58;;;;;;;4.88;4.68;;;;;;;12.36;100.00;100976.56;6039927;23;20088;-70
2022/10/02 02:42:34;;;;;;;4.80;4.50;;;;;;;12.41;100.00;100986.84;6022651;23;20047;-70
2022/10/02 02:45:10;;;;;;;10.48;5.10;;;;;;;12.56;100.00;100999.13;6029985;23;20027;-71
2022/10/02 02:47:57;;;;;;;5.63;4.80;;;;;;;12.48;100.00;100971.56;6002646;23;20114;-70
2022/10/02 02:50:48;;;;;;;7.47;5.20;;;;;;;12.39;100.00;100967.66;6034523;23;20050;-70
2022/10/02 02:53:37;;;;;;;5.93;4.80;;;;;;;12.71;100.00;101007.97;6024584;23;20194;-69
2022/10/02 02:56:16;;;;;;;5.35;5.05;;;;;;;12.67;100.00;101006.47;6015072;23;20007;-70
2022/10/02 02:58:50;;;;;;;5.15;4.70;;;;;;;12.40;100.00;100957.97;6032194;23;20272;-71
2022/10/02 03:01:21;;;;;;;5.35;5.05;;;;;;;12.77;100.00;101005.00;5998623;23;20018;-71
2022/10/02 03:04:03;;;;;;;5.13;4.75;;;;;;;11.90;100.00;100875.63;6022822;23;20251;-70
2022/10/02 03:06:37;;;;;;;4.82;4.57;;;;;;;11.77;100.00;100849.16;5995808;23;20038;-70
2022/10/02 03:09:09;;;;;;;4.80;4.60;;;;;;;11.94;100.00;100875.38;5985629;23;20019;-72
2022/10/02 03:12:01;;;;;;;5.43;4.97;;;;;;;12.82;100.00;101001.25;6031593;23;20576;-70
2022/10/02 03:14:52;;;;;;;26.42;5.40;;;;;;;12.82;100.00;100990.72;5993542;23;20021;-70
2022/10/02 03:17:43;;;;;;;5.10;4.75;;;;;;;12.87;100.00;100996.56;6018057;23;20512;-70
2022/10/02 03:21:08;;;;;;;5.47;4.88;;;;;;;12.68;100.00;100967.81;6027830;23;20026;-72
2022/10/02 03:23:47;;;;;;;13.55;4.88;;;;;;;12.87;100.00;100991.28;5902178;23;20034;-70
2022/10/02 03:26:34;;;;;;;7.30;5.00;;;;;;;12.87;100.00;100983.38;5989039;23;20262;-70
2022/10/02 03:29:10;;;;;;;5.50;4.93;;;;;;;12.88;100.00;100966.66;6028490;23;20019;-69
2022/10/02 03:31:42;;;;;;;7.10;5.80;;;;;;;12.77;100.00;100952.31;6000992;23;20100;-70
2022/10/02 03:34:22;;;;;;;7.03;5.25;;;;;;;13.03;100.00;100988.63;6031678;23;20364;-72
2022/10/02 03:36:56;;;;;;;6.07;5.47;;;;;;;13.07;100.00;100988.38;5980813;23;20046;-70
2022/10/02 03:39:26;;;;;;;4.90;4.50;;;;;;;12.85;100.00;100965.06;5999859;23;20026;-70
2022/10/02 03:41:55;;;;;;;5.65;5.15;;;;;;;12.71;100.00;100947.41;5979731;23;20042;-71
2022/10/02 03:44:22;;;;;;;9.05;5.28;;;;;;;13.10;100.00;101000.53;6021133;23;20054;-69
2022/10/02 03:46:54;;;;;;;5.35;4.90;;;;;;;13.10;100.00;100990.81;6025787;23;20097;-70
2022/10/02 03:49:22;;;;;;;7.68;5.45;;;;;;;12.68;100.00;100931.78;6034284;23;20027;-69
2022/10/02 03:51:53;;;;;;;4.70;4.50;;;;;;;12.78;100.00;100954.00;6030062;23;20363;-70
2022/10/02 03:54:21;;;;;;;5.00;4.70;;;;;;;13.14;100.00;101002.88;6007349;23;20098;-70
2022/10/02 03:57:14;;;;;;;6.40;5.20;;;;;;;13.15;100.00;100977.41;5999166;23;20026;-70
2022/10/02 04:00:08;;;;;;;5.55;5.18;;;;;;;13.14;100.00;100994.13;6013773;23;20028;-70
2022/10/02 04:02:44;;;;;;;6.35;5.18;;;;;;;13.22;100.00;100989.25;6024743;23;20175;-70
2022/10/02 04:05:26;;;;;;;5.15;4.82;;;;;;;13.21;100.00;100999.88;6029104;23;20046;-70
2022/10/02 04:08:19;;;;;;;10.13;5.22;;;;;;;13.21;100.00;100997.25;5997137;23;20039;-70
2022/10/02 04:11:13;;;;;;;5.30;4.90;;;;;;;13.22;100.00;100997.16;5999828;23;20078;-70
2022/10/02 04:13:50;;;;;;;6.70;5.10;;;;;;;13.22;100.00;100998.97;6011597;23;20495;-70
2022/10/02 04:16:36;;;;;;;4.75;4.45;;;;;;;13.21;100.00;101002.53;6020726;23;20023;-70
2022/10/02 04:19:16;;;;;;;5.38;4.95;;;;;;;13.17;100.00;101005.34;6007975;23;20016;-71
2022/10/02 04:21:55;;;;;;;4.97;4.70;;;;;;;13.15;100.00;101019.56;6004837;23;20018;-70
2022/10/02 04:24:59;;;;;;;5.60;4.78;;;;;;;13.14;100.00;101015.22;5997025;23;20031;-70
2022/10/02 04:27:41;;;;;;;5.22;4.82;;;;;;;13.09;100.00;101004.94;6003803;23;20046;-70
2022/10/02 04:30:16;;;;;;;15.65;4.80;;;;;;;12.43;100.00;100902.50;5991412;23;20094;-70
2022/10/02 04:32:48;;;;;;;4.53;4.32;;;;;;;12.27;100.00;100879.72;6035352;23;20035;-70
2022/10/02 04:35:30;;;;;;;9.43;5.00;;;;;;;12.95;100.00;100999.63;5994717;23;20531;-70
2022/10/02 04:41:31;;;;;;;5.35;4.47;;;;;;;12.89;100.00;101010.50;6036696;23;20105;-71
2022/10/02 04:44:30;;;;;;;6.88;4.70;;;;;;;12.90;100.00;101009.56;6020054;23;20030;-70
2022/10/02 04:47:35;;;;;;;6.78;4.60;;;;;;;12.83;100.00;101010.84;6004505;23;20042;-70
2022/10/02 04:50:22;;;;;;;4.40;4.20;;;;;;;11.89;100.00;100879.22;6012306;23;20098;-71
2022/10/02 04:53:14;;;;;;;4.85;4.65;;;;;;;12.73;100.00;101018.44;5998352;23;20406;-70
2022/10/02 04:56:10;;;;;;;4.80;4.50;;;;;;;12.73;100.00;101026.34;6031244;23;20054;-71
2022/10/02 04:59:00;;;;;;;4.50;4.30;;;;;;;12.73;100.00;101029.81;6030456;23;20030;-70
2022/10/02 05:01:59;;;;;;;17.38;5.80;;;;;;;12.43;100.00;100984.09;6030556;23;20030;-69
2022/10/02 05:04:33;;;;;;;13.45;4.85;;;;;;;12.63;100.00;101031.25;5979060;23;20042;-70
2022/10/02 05:07:19;;;;;;;7.13;4.80;;;;;;;12.60;100.00;101020.03;6020576;23;20092;-70
2022/10/02 05:10:21;;;;;;;5.25;4.72;;;;;;;12.60;100.00;101015.63;6022417;23;20037;-70
2022/10/02 05:13:30;;;;;;;6.60;4.72;;;;;;;12.59;100.00;101016.56;6023241;23;20750;-70
2022/10/02 05:16:18;;;;;;;4.70;4.50;;;;;;;12.57;100.00;101021.91;6030800;23;20038;-70
2022/10/02 05:19:15;;;;;;;5.28;4.82;;;;;;;12.59;100.00;101021.84;5965075;23;20422;-70
2022/10/02 05:22:22;;;;;;;4.60;4.40;;;;;;;12.10;100.00;100937.69;6026402;23;20689;-71
2022/10/02 05:25:18;;;;;;;4.68;4.40;;;;;;;12.66;100.00;101022.34;6021463;23;20286;-70
2022/10/02 05:28:07;;;;;;;5.32;4.93;;;;;;;12.66;100.00;101020.53;5995965;23;20026;-70
2022/10/02 05:31:09;;;;;;;5.15;4.75;;;;;;;12.72;100.00;101030.72;6008117;23;20036;-69
2022/10/02 05:33:51;;;;;;;4.47;4.28;;;;;;;12.30;100.00;100962.88;5992936;23;20117;-71
2022/10/02 05:36:44;;;;;;;7.65;4.85;;;;;;;12.75;100.00;101030.56;6000939;23;20031;-70
2022/10/02 05:39:37;;;;;;;4.60;4.40;;;;;;;12.47;100.00;100983.88;6031919;23;20509;-70
2022/10/02 05:42:32;;;;;;;4.82;4.60;;;;;;;12.48;100.00;100985.56;6000460;23;20189;-69
2022/10/02 05:45:16;;;;;;;5.82;5.13;;;;;;;12.76;100.00;101016.47;6032182;23;20075;-70
2022/10/02 05:47:49;;;;;;;5.03;4.65;;;;;;;12.87;100.00;101031.66;6028994;23;20366;-69
2022/10/02 05:50:26;;;;;;;4.60;4.40;;;;;;;12.89;100.00;101036.84;6004784;23;20027;-69
2022/10/02 05:53:34;;;;;;;5.55;5.00;;;;;;;12.93;100.00;101035.75;6041591;23;20026;-70
2022/10/02 05:56:16;;;;;;;5.32;4.93;;;;;;;12.71;100.00;101000.09;6014394;23;20015;-68
2022/10/02 05:58:55;;;;;;;5.25;4.95;;;;;;;11.94;100.00;100883.25;6033611;23;20089;-69
2022/10/02 06:01:29;;;;;;;5.20;4.90;;;;;;;12.98;100.00;101038.97;5999280;23;20031;-68
2022/10/02 06:04:00;;;;;;;17.90;5.53;;;;;;;12.74;100.00;101009.59;6012575;23;20035;-67
2022/10/02 06:06:41;;;;;;;4.95;4.60;;;;;;;12.78;100.00;101004.06;6023388;23;20020;-68
2022/10/02 06:09:15;;;;;;;4.70;4.50;;;;;;;13.04;100.00;101043.88;6029887;23;20030;-68
2022/10/02 06:11:54;;;;;;;4.55;4.35;;;;;;;12.88;100.00;101037.78;6034242;23;20101;-68
2022/10/02 06:14:35;;;;;;;5.05;4.80;;;;;;;13.08;100.00;101065.63;6001548;23;20035;-69
2022/10/02 06:17:18;;;;;;;5.65;4.90;;;;;;;12.89;100.00;101042.09;6027060;23;20007;-69
2022/10/02 06:20:01;;;;;;;;;;;;;;;13.13;100.00;101082.88;6032724;23;20022;-68
2022/10/02 06:22:38;;;;;;;5.15;4.55;;;;;;;12.91;100.00;101050.75;5988625;23;19915;-69
2022/10/02 06:25:16;;;;;;;4.97;4.70;;;;;;;13.12;100.00;101078.53;6000448;23;20015;-69
2022/10/02 06:27:49;;;;;;;5.43;5.07;;;;;;;13.01;100.00;101064.28;6011863;23;20088;-68
2022/10/02 06:30:17;;;;;;;4.78;4.55;;;;;;;13.16;100.00;101080.06;5960839;23;20028;-69
2022/10/02 06:33:06;;;;;;;7.93;4.90;;;;;;;13.26;100.00;101076.91;6018988;23;20076;-68
2022/10/02 06:36:20;;;;;;;4.70;4.50;;;;;;;13.30;100.00;101068.78;6004060;23;20035;-69
2022/10/02 06:39:07;;;;;;;5.55;4.95;;;;;;;13.43;100.00;101087.38;5989998;23;20067;-68
2022/10/02 06:41:46;;;;;;;5.18;4.75;;;;;;;13.49;100.00;101087.03;5993089;23;20020;-68
2022/10/02 06:44:34;;;;;;;5.57;5.28;;;;;;;13.60;100.00;101089.03;5998883;23;20046;-69
2022/10/02 06:47:34;;;;;;;5.60;5.30;;;;;;;13.66;100.00;101080.75;5977480;23;20028;-69
2022/10/02 06:50:19;;;;;;;9.23;5.05;;;;;;;13.66;100.00;101101.84;5982440;23;20026;-68
2022/10/02 06:53:03;;;;;;;9.35;5.57;;;;;;;13.72;100.00;101098.00;5986080;23;20031;-68
2022/10/02 06:56:01;;;;;;;4.97;4.78;;;;;;;13.76;100.00;101103.00;5995949;23;20015;-68
2022/10/02 06:58:33;;;;;;;5.28;4.70;;;;;;;13.74;100.00;101102.25;5994740;23;20039;-68
2022/10/02 07:01:46;;;;;;;18.27;5.25;;;;;;;13.79;100.00;101109.91;5970561;23;20036;-69
2022/10/02 07:04:50;;;;;;;5.25;5.03;;;;;;;13.85;100.00;101101.63;5997928;23;20026;-68
2022/10/02 07:07:26;;;;;;;5.70;5.22;;;;;;;13.91;100.00;101108.28;6020619;23;20065;-67
2022/10/02 07:10:14;;;;;;;5.55;5.25;;;;;;;13.98;100.00;101114.91;5999689;23;20264;-68
2022/10/02 07:13:14;;;;;;;5.15;4.85;;;;;;;14.04;100.00;101108.44;6026593;23;20564;-67
2022/10/02 07:16:06;;;;;;;5.72;5.30;;;;;;;14.03;100.00;101112.88;5957326;23;20090;-68
2022/10/02 07:18:46;;;;;;;7.03;5.63;;;;;;;14.07;100.00;101116.16;5990122;23;20068;-68
2022/10/02 07:21:45;;;;;;;5.15;4.88;;;;;;;13.98;100.00;101119.34;5994032;23;20019;-68
2022/10/02 07:24:17;;;;;;;10.15;5.57;;;;;;;14.02;100.00;101120.88;5933768;23;20494;-68
2022/10/02 07:27:00;;;;;;;4.65;4.45;;;;;;;13.88;100.00;101077.69;5995786;23;20034;-68
2022/10/02 07:30:04;;;;;;;4.95;4.65;;;;;;;14.11;100.00;101115.03;5997274;23;20028;-68
2022/10/02 07:32:46;;;;;;;5.13;4.93;;;;;;;14.19;100.00;101128.59;5882391;24;20064;-69
2022/10/02 07:35:29;;;;;;;5.55;5.00;;;;;;;14.26;100.00;101131.75;5979576;23;20516;-69
2022/10/02 07:38:41;;;;;;;5.30;5.00;;;;;;;13.83;100.00;101063.94;5964621;23;20476;-70
2022/10/02 07:41:40;;;;;;;4.97;4.78;;;;;;;14.20;100.00;101130.31;5981032;23;20019;-69
2022/10/02 07:44:29;;;;;;;9.55;5.25;;;;;;;14.19;100.00;101133.03;5992444;23;20011;-69
2022/10/02 07:47:07;;;;;;;5.60;5.22;;;;;;;14.17;100.00;101135.75;5998585;23;20034;-68
2022/10/02 07:50:12;;;;;;;5.30;5.00;;;;;;;14.14;100.00;101147.38;5992747;23;20058;-67
2022/10/02 07:52:53;;;;;;;5.30;5.00;;;;;;;14.15;100.00;101162.28;5993866;23;20031;-68
2022/10/02 07:55:21;;;;;;;6.68;5.45;;;;;;;14.13;100.00;101150.97;5970302;23;20095;-68
2022/10/02 07:57:58;;;;;;;4.97;4.78;;;;;;;14.24;100.00;101157.38;5997518;23;20035;-68
2022/10/02 08:00:28;;;;;;;5.57;5.30;;;;;;;14.29;100.00;101150.88;5990116;23;20128;-68
2022/10/02 08:02:57;;;;;;;5.15;4.90;;;;;;;14.40;100.00;101144.09;5955748;23;20023;-68
2022/10/02 08:05:54;;;;;;;5.38;4.93;;;;;;;14.39;100.00;101147.66;5990369;23;20039;-68
2022/10/02 08:08:30;;;;;;;5.78;5.28;;;;;;;14.44;100.00;101153.53;5979225;23;20023;-68
2022/10/02 08:11:36;;;;;;;5.38;4.88;;;;;;;14.60;100.00;101149.03;5989617;23;20248;-69
2022/10/02 08:14:18;;;;;;;5.22;5.00;;;;;;;14.66;100.00;101147.81;5905168;24;20030;-69
2022/10/02 08:16:48;;;;;;;5.47;5.18;;;;;;;14.70;100.00;101152.81;5995161;23;20011;-69
2022/10/02 08:19:29;;;;;;;5.72;5.25;;;;;;;14.64;100.00;101153.19;5968042;23;20029;-69
2022/10/02 08:22:01;;;;;;;5.15;4.93;;;;;;;14.56;100.00;101137.81;5981967;23;21507;-68
2022/10/02 08:24:40;;;;;;;5.15;4.85;;;;;;;14.73;100.00;101141.19;5987200;23;20032;-69
2022/10/02 08:27:14;;;;;;;6.32;5.78;;;;;;;14.63;100.00;101129.50;5993748;23;20015;-69
2022/10/02 08:29:54;;;;;;;5.18;4.88;;;;;;;14.63;100.00;101100.44;6012899;23;20027;-69
2022/10/02 08:32:21;;;;;;;8.55;6.30;;;;;;;14.84;100.00;101157.22;6010067;23;20031;-70
2022/10/02 08:34:51;;;;;;;5.32;5.05;;;;;;;14.88;100.00;101150.81;6020681;23;20088;-69
2022/10/02 08:37:39;;;;;;;6.07;5.18;;;;;;;15.14;100.00;101158.88;5997171;23;20031;-70
2022/10/02 08:40:39;;;;;;;5.72;5.43;;;;;;;15.33;100.00;101177.03;5986115;23;20030;-69
2022/10/02 08:43:43;;;;;;;5.50;5.10;;;;;;;15.08;100.00;101117.81;6017607;23;20603;-68
2022/10/02 08:46:32;;;;;;;6.03;5.43;;;;;;;15.54;100.00;101183.59;5992136;23;20706;-68
2022/10/02 08:49:33;;;;;;;5.38;5.00;;;;;;;15.58;100.00;101184.25;6016945;23;20022;-69
2022/10/02 08:52:26;;;;;;;5.28;4.97;;;;;;;15.47;100.00;101190.22;5987740;23;20621;-68
2022/10/02 08:55:27;;;;;;;5.82;4.70;;;;;;;15.28;100.00;101179.16;6019543;23;20027;-68
2022/10/02 08:58:23;;;;;;;11.60;5.20;;;;;;;15.20;100.00;101182.28;6001916;23;20047;-68
2022/10/02 09:01:08;;;;;;;5.25;4.95;;;;;;;14.78;100.00;101147.03;6017150;23;20015;-69
2022/10/02 09:04:16;;;;;;;5.35;4.93;;;;;;;14.97;100.00;101178.44;5993906;23;20034;-69
2022/10/02 09:07:10;;;;;;;5.18;4.88;;;;;;;14.54;100.00;101144.94;6017096;23;20023;-68
2022/10/02 09:09:59;;;;;;;5.20;4.80;;;;;;;14.70;100.00;101181.84;5994511;23;20116;-68
2022/10/02 09:12:43;;;;;;;5.35;5.05;;;;;;;14.69;100.00;101187.22;6020067;23;20073;-68
2022/10/02 09:15:19;;;;;;;4.90;4.70;;;;;;;14.72;100.00;101182.63;6014427;23;20043;-68
2022/10/02 09:18:12;;;;;;;4.90;4.70;;;;;;;14.63;100.00;101191.09;6028004;23;20010;-69
2022/10/02 09:21:09;;;;;;;5.17;4.80;;;;;;;14.79;100.00;101193.63;5988437;23;20024;-67
2022/10/02 09:24:00;;;;;;;8.18;5.20;;;;;;;14.90;100.00;101209.69;6023982;23;20760;-68
2022/10/02 09:26:58;;;;;;;5.20;4.90;;;;;;;15.09;100.00;101212.00;6026099;23;20026;-69
2022/10/02 09:29:48;;;;;;;5.93;5.13;;;;;;;15.36;100.00;101217.38;5977826;23;20031;-69
2022/10/02 09:32:59;;;;;;;5.22;5.03;;;;;;;15.18;100.00;101204.47;5976703;23;20052;-70
2022/10/02 09:35:56;;;;;;;7.78;5.13;;;;;;;15.20;100.00;101215.81;5997506;23;20824;-69
2022/10/02 09:38:43;;;;;;;5.50;5.10;;;;;;;15.04;100.00;101194.78;5978402;23;20029;-69
2022/10/02 09:41:31;;;;;;;5.50;5.10;;;;;;;15.26;100.00;101195.09;6000319;23;20316;-68
2022/10/02 09:44:35;;;;;;;5.70;4.82;;;;;;;15.39;100.00;101221.59;5998531;23;20023;-68
2022/10/02 09:47:20;;;;;;;6.20;5.60;;;;;;;15.62;100.00;101208.69;5996874;23;20727;-68
2022/10/02 09:50:17;;;;;;;5.30;5.10;;;;;;;15.56;100.00;101157.88;5994710;23;20035;-68
2022/10/02 09:53:12;;;;;;;5.60;5.15;;;;;;;16.01;100.00;101201.75;5999784;23;20079;-68
2022/10/02 09:55:57;;;;;;;5.30;4.88;;;;;;;16.30;100.00;101216.50;5971399;23;20024;-68
2022/10/02 09:58:58;;;;;;;4.97;4.78;;;;;;;16.64;100.00;101206.25;6001461;23;20035;-68
2022/10/02 10:01:49;;;;;;;5.38;5.10;;;;;;;16.86;100.00;101207.44;5998385;23;20102;-68
2022/10/02 10:04:45;;;;;;;5.25;5.00;;;;;;;16.59;100.00;101171.25;6001238;23;20023;-68
2022/10/02 10:07:45;;;;;;;5.45;5.10;;;;;;;16.59;100.00;101197.75;5999789;23;20210;-69
2022/10/02 10:10:18;;;;;;;5.30;4.90;;;;;;;16.58;100.00;101208.47;5965560;24;20295;-69
2022/10/02 10:13:21;;;;;;;5.80;5.30;;;;;;;16.68;100.00;101206.88;5962492;23;20084;-69
2022/10/02 10:16:06;;;;;;;5.90;5.50;;;;;;;16.66;100.00;101214.94;5997858;23;20609;-69
2022/10/02 10:19:01;;;;;;;5.97;5.50;;;;;;;16.64;100.00;101211.56;5969371;24;20692;-70
2022/10/02 10:21:50;;;;;;;5.63;5.32;;;;;;;16.55;100.00;101220.13;5999461;23;20537;-67
2022/10/02 10:24:38;;;;;;;8.50;5.22;;;;;;;16.62;100.00;101224.06;5965634;24;20408;-68
2022/10/02 10:27:18;;;;;;;7.80;5.50;;;;;;;16.65;100.00;101237.06;5970413;23;20045;-69
2022/10/02 10:30:14;;;;;;;5.20;4.80;;;;;;;16.91;100.00;101232.63;5997339;23;20705;-69
2022/10/02 10:33:19;;;;;;;5.60;5.30;;;;;;;17.22;100.00;101246.41;5996044;23;20075;-69
2022/10/02 10:36:07;;;;;;;5.80;5.40;;;;;;;17.59;100.00;101246.38;5972498;23;20027;-69
2022/10/02 10:38:51;;;;;;;5.32;5.10;;;;;;;17.41;100.00;101237.94;5966893;23;20233;-70
2022/10/02 10:41:47;;;;;;;5.65;5.25;;;;;;;17.22;100.00;101216.34;5989110;23;20654;-69
2022/10/02 10:44:26;;;;;;;5.70;5.40;;;;;;;17.30;100.00;101240.56;5991770;23;20688;-69
2022/10/02 10:47:04;;;;;;;5.80;5.50;;;;;;;17.35;100.00;101247.19;5987505;23;20438;-69
2022/10/02 10:50:03;;;;;;;5.72;5.43;;;;;;;17.64;100.00;101259.31;5993161;23;20035;-69
2022/10/02 10:52:45;;;;;;;5.85;5.38;;;;;;;17.73;100.00;101263.94;5998124;23;20023;-70
2022/10/02 10:55:21;;;;;;;6.22;5.75;;;;;;;17.83;100.00;101262.34;5997605;23;20031;-70
2022/10/02 10:58:01;;;;;;;5.78;5.30;;;;;;;17.74;100.00;101260.34;5994641;23;20043;-70
2022/10/02 11:00:44;;;;;;;6.03;5.53;;;;;;;17.57;100.00;101266.88;5997421;23;20561;-69
2022/10/02 11:03:28;;;;;;;;;;;;;;;17.51;100.00;101272.63;6000011;23;20052;-70
2022/10/02 11:06:04;;;;;;;5.57;5.18;;;;;;;17.25;100.00;101238.19;5992297;23;20014;-70
2022/10/02 11:08:46;;;;;;;5.20;5.00;;;;;;;17.47;100.00;101272.00;5969906;23;20032;-69
2022/10/02 11:11:15;;;;;;;5.95;5.32;;;;;;;17.49;100.00;101277.19;5998324;23;20011;-70
2022/10/02 11:14:13;;;;;;;5.70;5.30;;;;;;;17.59;100.00;101277.38;5963291;23;20031;-69
2022/10/02 11:17:01;;;;;;;5.50;5.20;;;;;;;17.34;100.00;101277.34;5996214;23;20090;-70
2022/10/02 11:19:56;;;;;;;5.50;5.30;;;;;;;17.32;100.00;101284.56;5998295;23;20477;-69
2022/10/02 11:22:36;;;;;;;5.90;5.50;;;;;;;17.20;100.00;101282.78;5970210;23;20031;-69
2022/10/02 11:25:34;;;;;;;6.22;5.75;;;;;;;17.15;100.00;101279.59;5998430;23;20030;-69
2022/10/02 11:28:20;;;;;;;9.80;5.40;;;;;;;17.34;100.00;101287.97;5998887;23;20019;-69
2022/10/02 11:30:59;;;;;;;8.38;5.30;;;;;;;17.77;100.00;101289.31;5999647;23;20030;-70
2022/10/02 11:33:56;;;;;;;5.97;5.57;;;;;;;17.96;100.00;101264.97;6025222;23;20042;-69
2022/10/02 11:37:04;;;;;;;7.75;5.38;;;;;;;17.70;97.54;101230.53;5970377;23;20031;-70
2022/10/02 11:39:49;;;;;;;6.80;5.60;;;;;;;18.21;97.84;101295.84;5981057;23;20073;-69
2022/10/02 11:42:34;;;;;;;5.72;5.32;;;;;;;17.96;98.34;101293.31;5992545;23;20019;-70
2022/10/02 11:45:37;;;;;;;5.30;5.00;;;;;;;17.75;98.85;101301.84;5997853;23;20015;-69
2022/10/02 11:48:19;;;;;;;5.47;5.10;;;;;;;17.67;100.00;101293.59;6012399;23;20142;-69
2022/10/02 11:50:51;;;;;;;7.18;5.40;;;;;;;17.64;100.00;101302.66;5992388;23;20031;-70
2022/10/02 11:53:46;;;;;;;6.05;5.65;;;;;;;17.39;100.00;101308.00;5955537;24;20024;-69
2022/10/02 11:56:25;;;;;;;6.10;5.50;;;;;;;17.19;100.00;101290.84;5986835;23;20023;-70
2022/10/02 11:59:02;;;;;;;5.80;5.43;;;;;;;17.39;100.00;101306.19;6011593;23;20027;-69
2022/10/02 12:01:30;;;;;;;5.85;5.43;;;;;;;17.33;100.00;101306.63;5993888;23;20104;-70
2022/10/02 12:04:21;;;;;;;5.45;5.15;;;;;;;17.43;100.00;101312.97;5958558;23;20469;-69
2022/10/02 12:07:23;;;;;;;7.45;5.63;;;;;;;17.61;100.00;101316.13;5950149;23;20015;-69
2022/10/02 12:10:26;;;;;;;6.20;5.70;;;;;;;17.69;100.00;101311.09;5971452;23;20027;-70
2022/10/02 12:13:24;;;;;;;6.47;5.88;;;;;;;17.71;100.00;101308.34;6009505;23;20022;-69
2022/10/02 12:16:00;;;;;;;5.57;5.28;;;;;;;17.98;100.00;101316.16;5985044;23;20034;-70
2022/10/02 12:18:47;;;;;;;5.82;5.43;;;;;;;17.80;100.00;101314.78;6026557;23;20270;-69
2022/10/02 12:26:57;;;;;;;8.80;6.03;;;;;;;17.72;98.74;101315.34;6025292;23;20511;-69
2022/10/02 12:27:36;;;;;;;5.78;5.47;;;;;;;17.94;99.26;101315.53;5994953;23;20024;-69
2022/10/02 12:30:11;;;;;;;6.03;5.63;;;;;;;17.57;98.02;101258.06;5998379;23;20077;-70
2022/10/02 12:33:10;;;;;;;5.70;5.40;;;;;;;18.00;99.35;101318.66;5996884;23;20167;-69
2022/10/02 12:35:58;;;;;;;7.70;5.57;;;;;;;18.17;100.00;101312.13;6022865;23;20030;-69
2022/10/02 12:38:48;;;;;;;5.70;5.40;;;;;;;18.37;96.60;101318.59;6020405;23;20039;-70
2022/10/02 12:41:43;;;;;;;6.30;5.70;;;;;;;18.69;96.14;101313.50;5988319;23;20031;-70
2022/10/02 12:44:34;;;;;;;5.97;5.68;;;;;;;19.06;92.24;101310.66;6021646;23;20073;-70
2022/10/02 12:47:10;;;;;;;6.10;5.60;;;;;;;19.15;91.14;101277.19;6019951;23;20011;-70
2022/10/02 12:49:51;;;;;;;5.78;5.47;;;;;;;19.61;89.55;101302.78;6033315;23;20117;-69